Duck Lake, Canada
Current Conditions -  °F | °C
As of 4:00 AM on Friday 31 Oct 2014 (Local Time) from CYPA Reporting Station
Scattered Clouds Scattered Clouds  
Wind Chill: 16°   Ceiling: Unl
Heat Index: 27°   Visibility: 15mi
Dew Point: 23°   Wind: 12mph
Humidity: 86%   Direction: 170°S
Pressure: 30.22"   Gusts: NA
Location:  52.8°N, 106.22°W
Report Text: CYPA 311000Z 17010KT 15SM SCT014 M03/M05 A3022 RMK SF4 SLP260
Loading
Personal Weather Stations






























Interactive Weather Map New forecast layout! Learn more

10-Day Weather Forecast

Advertisements
Track Severe Weather on mobile